sensor_id;sensor_type;location;lat;lon;timestamp;pressure;altitude;pressure_sealevel;temperature
11792;BMP180;5953;52.372;9.918;2023-04-01T00:00:32;98726.00;;;15.70
11792;BMP180;5953;52.372;9.918;2023-04-01T00:03:00;98728.00;;;15.80
11792;BMP180;5953;52.372;9.918;2023-04-01T00:05:27;98723.00;;;15.80
11792;BMP180;5953;52.372;9.918;2023-04-01T00:07:56;98726.00;;;15.80
11792;BMP180;5953;52.372;9.918;2023-04-01T00:10:23;98729.00;;;15.70
11792;BMP180;5953;52.372;9.918;2023-04-01T00:12:52;98722.00;;;15.80
11792;BMP180;5953;52.372;9.918;2023-04-01T00:15:20;98712.00;;;15.70
11792;BMP180;5953;52.372;9.918;2023-04-01T00:17:48;98722.00;;;15.80
11792;BMP180;5953;52.372;9.918;2023-04-01T00:20:16;98717.00;;;15.60
11792;BMP180;5953;52.372;9.918;2023-04-01T00:22:44;98695.00;;;15.70
11792;BMP180;5953;52.372;9.918;2023-04-01T00:25:12;98721.00;;;15.60
11792;BMP180;5953;52.372;9.918;2023-04-01T00:27:40;98716.00;;;15.60
11792;BMP180;5953;52.372;9.918;2023-04-01T00:30:10;98709.00;;;15.50
11792;BMP180;5953;52.372;9.918;2023-04-01T00:32:38;98716.00;;;15.50
11792;BMP180;5953;52.372;9.918;2023-04-01T00:35:07;98721.00;;;15.50
11792;BMP180;5953;52.372;9.918;2023-04-01T00:37:36;98715.00;;;15.40
11792;BMP180;5953;52.372;9.918;2023-04-01T00:40:07;98717.00;;;15.30
11792;BMP180;5953;52.372;9.918;2023-04-01T00:42:35;98714.00;;;15.30
11792;BMP180;5953;52.372;9.918;2023-04-01T00:45:28;98721.00;;;15.30
11792;BMP180;5953;52.372;9.918;2023-04-01T00:47:59;98723.00;;;15.20
11792;BMP180;5953;52.372;9.918;2023-04-01T00:50:28;98719.00;;;15.40
11792;BMP180;5953;52.372;9.918;2023-04-01T00:52:59;98716.00;;;15.40
11792;BMP180;5953;52.372;9.918;2023-04-01T00:55:30;98721.00;;;15.00
11792;BMP180;5953;52.372;9.918;2023-04-01T00:58:00;98714.00;;;15.00
11792;BMP180;5953;52.372;9.918;2023-04-01T01:00:30;98720.00;;;15.10
11792;BMP180;5953;52.372;9.918;2023-04-01T01:02:59;98728.00;;;15.20
11792;BMP180;5953;52.372;9.918;2023-04-01T01:05:34;98703.00;;;15.30
11792;BMP180;5953;52.372;9.918;2023-04-01T01:08:19;98730.00;;;15.20
11792;BMP180;5953;52.372;9.918;2023-04-01T01:10:49;98729.00;;;15.20
11792;BMP180;5953;52.372;9.918;2023-04-01T01:13:22;98718.00;;;15.20
11792;BMP180;5953;52.372;9.918;2023-04-01T01:15:58;98720.00;;;15.30
11792;BMP180;5953;52.372;9.918;2023-04-01T01:18:34;98723.00;;;15.30
11792;BMP180;5953;52.372;9.918;2023-04-01T01:21:28;98724.00;;;15.20
11792;BMP180;5953;52.372;9.918;2023-04-01T01:24:17;98712.00;;;15.10
11792;BMP180;5953;52.372;9.918;2023-04-01T01:26:56;98727.00;;;15.10
11792;BMP180;5953;52.372;9.918;2023-04-01T01:30:09;98722.00;;;15.10
11792;BMP180;5953;52.372;9.918;2023-04-01T01:33:08;98713.00;;;14.80
11792;BMP180;5953;52.372;9.918;2023-04-01T01:35:43;98723.00;;;15.00
11792;BMP180;5953;52.372;9.918;2023-04-01T01:38:15;98734.00;;;15.10
11792;BMP180;5953;52.372;9.918;2023-04-01T01:40:46;98726.00;;;15.20
11792;BMP180;5953;52.372;9.918;2023-04-01T01:43:21;98720.00;;;15.20
11792;BMP180;5953;52.372;9.918;2023-04-01T01:45:53;98725.00;;;15.20
11792;BMP180;5953;52.372;9.918;2023-04-01T01:48:23;98726.00;;;15.20
11792;BMP180;5953;52.372;9.918;2023-04-01T01:50:53;98721.00;;;15.20
11792;BMP180;5953;52.372;9.918;2023-04-01T01:53:21;98721.00;;;15.20
11792;BMP180;5953;52.372;9.918;2023-04-01T01:55:49;98718.00;;;15.30
11792;BMP180;5953;52.372;9.918;2023-04-01T01:58:20;98716.00;;;15.30
11792;BMP180;5953;52.372;9.918;2023-04-01T02:00:52;98712.00;;;15.30
11792;BMP180;5953;52.372;9.918;2023-04-01T02:03:22;98719.00;;;15.20
11792;BMP180;5953;52.372;9.918;2023-04-01T02:05:53;98725.00;;;15.20
11792;BMP180;5953;52.372;9.918;2023-04-01T02:08:26;98724.00;;;15.30
11792;BMP180;5953;52.372;9.918;2023-04-01T02:10:59;98725.00;;;15.40
11792;BMP180;5953;52.372;9.918;2023-04-01T02:13:30;98712.00;;;15.30
11792;BMP180;5953;52.372;9.918;2023-04-01T02:16:00;98724.00;;;15.30
11792;BMP180;5953;52.372;9.918;2023-04-01T02:18:30;98731.00;;;15.40
11792;BMP180;5953;52.372;9.918;2023-04-01T02:21:03;98722.00;;;15.30
11792;BMP180;5953;52.372;9.918;2023-04-01T02:23:34;98721.00;;;15.40
11792;BMP180;5953;52.372;9.918;2023-04-01T02:26:05;98732.00;;;15.30
11792;BMP180;5953;52.372;9.918;2023-04-01T02:28:36;98732.00;;;15.20
11792;BMP180;5953;52.372;9.918;2023-04-01T02:31:06;98744.00;;;15.10
11792;BMP180;5953;52.372;9.918;2023-04-01T02:33:36;98732.00;;;15.00
11792;BMP180;5953;52.372;9.918;2023-04-01T02:36:10;98737.00;;;15.20
11792;BMP180;5953;52.372;9.918;2023-04-01T02:38:38;98737.00;;;15.40
11792;BMP180;5953;52.372;9.918;2023-04-01T02:41:07;98722.00;;;15.40
11792;BMP180;5953;52.372;9.918;2023-04-01T02:43:34;98713.00;;;15.50
11792;BMP180;5953;52.372;9.918;2023-04-01T02:46:02;98732.00;;;15.50
11792;BMP180;5953;52.372;9.918;2023-04-01T02:48:30;98720.00;;;15.40
11792;BMP180;5953;52.372;9.918;2023-04-01T02:50:58;98739.00;;;15.50
11792;BMP180;5953;52.372;9.918;2023-04-01T02:53:27;98742.00;;;15.50
11792;BMP180;5953;52.372;9.918;2023-04-01T02:55:55;98747.00;;;15.50
11792;BMP180;5953;52.372;9.918;2023-04-01T02:58:22;98742.00;;;15.50
11792;BMP180;5953;52.372;9.918;2023-04-01T03:00:50;98741.00;;;15.60
11792;BMP180;5953;52.372;9.918;2023-04-01T03:03:18;98739.00;;;15.40
11792;BMP180;5953;52.372;9.918;2023-04-01T03:05:46;98743.00;;;15.50
11792;BMP180;5953;52.372;9.918;2023-04-01T03:08:14;98748.00;;;15.50
11792;BMP180;5953;52.372;9.918;2023-04-01T03:10:43;98745.00;;;15.50
11792;BMP180;5953;52.372;9.918;2023-04-01T03:13:11;98748.00;;;15.50
11792;BMP180;5953;52.372;9.918;2023-04-01T03:15:38;98749.00;;;15.50
11792;BMP180;5953;52.372;9.918;2023-04-01T03:18:06;98743.00;;;15.50
11792;BMP180;5953;52.372;9.918;2023-04-01T03:20:34;98747.00;;;15.40
11792;BMP180;5953;52.372;9.918;2023-04-01T03:23:02;98746.00;;;15.50
11792;BMP180;5953;52.372;9.918;2023-04-01T03:25:29;98744.00;;;15.50
11792;BMP180;5953;52.372;9.918;2023-04-01T03:27:59;98747.00;;;15.40
11792;BMP180;5953;52.372;9.918;2023-04-01T03:30:27;98741.00;;;15.50
11792;BMP180;5953;52.372;9.918;2023-04-01T03:32:57;98740.00;;;15.40
11792;BMP180;5953;52.372;9.918;2023-04-01T03:35:26;98737.00;;;15.40
11792;BMP180;5953;52.372;9.918;2023-04-01T03:37:54;98746.00;;;15.30
11792;BMP180;5953;52.372;9.918;2023-04-01T03:40:23;98742.00;;;15.20
11792;BMP180;5953;52.372;9.918;2023-04-01T03:42:52;98745.00;;;15.30
11792;BMP180;5953;52.372;9.918;2023-04-01T03:45:21;98735.00;;;15.40
11792;BMP180;5953;52.372;9.918;2023-04-01T03:47:49;98743.00;;;15.40
11792;BMP180;5953;52.372;9.918;2023-04-01T03:50:17;98751.00;;;15.30
11792;BMP180;5953;52.372;9.918;2023-04-01T03:52:46;98756.00;;;15.30
11792;BMP180;5953;52.372;9.918;2023-04-01T03:55:13;98751.00;;;15.30
11792;BMP180;5953;52.372;9.918;2023-04-01T03:57:41;98760.00;;;15.10
11792;BMP180;5953;52.372;9.918;2023-04-01T04:00:10;98759.00;;;15.10
11792;BMP180;5953;52.372;9.918;2023-04-01T04:02:39;98747.00;;;15.00
11792;BMP180;5953;52.372;9.918;2023-04-01T04:05:07;98760.00;;;14.90
11792;BMP180;5953;52.372;9.918;2023-04-01T04:07:36;98753.00;;;15.00
11792;BMP180;5953;52.372;9.918;2023-04-01T04:10:04;98764.00;;;15.10
11792;BMP180;5953;52.372;9.918;2023-04-01T04:12:32;98763.00;;;15.10
11792;BMP180;5953;52.372;9.918;2023-04-01T04:15:00;98754.00;;;15.10
11792;BMP180;5953;52.372;9.918;2023-04-01T04:17:28;98764.00;;;15.00
11792;BMP180;5953;52.372;9.918;2023-04-01T04:19:57;98755.00;;;15.10
11792;BMP180;5953;52.372;9.918;2023-04-01T04:22:25;98753.00;;;15.20
11792;BMP180;5953;52.372;9.918;2023-04-01T04:24:53;98762.00;;;15.10
11792;BMP180;5953;52.372;9.918;2023-04-01T04:27:20;98768.00;;;15.20
11792;BMP180;5953;52.372;9.918;2023-04-01T04:29:48;98762.00;;;15.30
11792;BMP180;5953;52.372;9.918;2023-04-01T04:32:16;98764.00;;;15.30
11792;BMP180;5953;52.372;9.918;2023-04-01T04:34:44;98770.00;;;15.30
11792;BMP180;5953;52.372;9.918;2023-04-01T04:37:13;98768.00;;;15.30
11792;BMP180;5953;52.372;9.918;2023-04-01T04:39:41;98771.00;;;15.40
11792;BMP180;5953;52.372;9.918;2023-04-01T04:42:08;98769.00;;;15.40
11792;BMP180;5953;52.372;9.918;2023-04-01T04:44:36;98775.00;;;15.50
11792;BMP180;5953;52.372;9.918;2023-04-01T04:47:04;98777.00;;;15.50
11792;BMP180;5953;52.372;9.918;2023-04-01T04:49:32;98772.00;;;15.50
11792;BMP180;5953;52.372;9.918;2023-04-01T04:51:59;98783.00;;;15.40
11792;BMP180;5953;52.372;9.918;2023-04-01T04:54:29;98781.00;;;15.30
11792;BMP180;5953;52.372;9.918;2023-04-01T04:56:57;98768.00;;;15.20
11792;BMP180;5953;52.372;9.918;2023-04-01T04:59:24;98784.00;;;15.30
11792;BMP180;5953;52.372;9.918;2023-04-01T05:01:52;98782.00;;;15.20
11792;BMP180;5953;52.372;9.918;2023-04-01T05:04:20;98779.00;;;15.20
11792;BMP180;5953;52.372;9.918;2023-04-01T05:06:48;98784.00;;;15.00
11792;BMP180;5953;52.372;9.918;2023-04-01T05:09:15;98782.00;;;15.00
11792;BMP180;5953;52.372;9.918;2023-04-01T05:11:44;98775.00;;;14.90
11792;BMP180;5953;52.372;9.918;2023-04-01T05:14:13;98791.00;;;14.90
11792;BMP180;5953;52.372;9.918;2023-04-01T05:16:41;98798.00;;;14.90
11792;BMP180;5953;52.372;9.918;2023-04-01T05:19:09;98795.00;;;14.90
11792;BMP180;5953;52.372;9.918;2023-04-01T05:21:37;98795.00;;;14.90
11792;BMP180;5953;52.372;9.918;2023-04-01T05:24:07;98797.00;;;15.00
11792;BMP180;5953;52.372;9.918;2023-04-01T05:26:35;98787.00;;;14.90
11792;BMP180;5953;52.372;9.918;2023-04-01T05:29:05;98794.00;;;14.90
11792;BMP180;5953;52.372;9.918;2023-04-01T05:31:32;98800.00;;;14.90
11792;BMP180;5953;52.372;9.918;2023-04-01T05:34:00;98804.00;;;14.30
11792;BMP180;5953;52.372;9.918;2023-04-01T05:36:28;98807.00;;;14.50
11792;BMP180;5953;52.372;9.918;2023-04-01T05:38:56;98810.00;;;14.70
11792;BMP180;5953;52.372;9.918;2023-04-01T05:41:24;98804.00;;;14.70
11792;BMP180;5953;52.372;9.918;2023-04-01T05:43:52;98799.00;;;14.50
11792;BMP180;5953;52.372;9.918;2023-04-01T05:46:21;98807.00;;;14.70
11792;BMP180;5953;52.372;9.918;2023-04-01T05:48:49;98802.00;;;14.80
11792;BMP180;5953;52.372;9.918;2023-04-01T05:51:16;98809.00;;;14.70
11792;BMP180;5953;52.372;9.918;2023-04-01T05:53:44;98821.00;;;14.70
11792;BMP180;5953;52.372;9.918;2023-04-01T05:56:12;98815.00;;;14.80
11792;BMP180;5953;52.372;9.918;2023-04-01T05:58:40;98812.00;;;14.70
11792;BMP180;5953;52.372;9.918;2023-04-01T06:01:09;98813.00;;;14.80
11792;BMP180;5953;52.372;9.918;2023-04-01T06:03:43;98814.00;;;14.80
11792;BMP180;5953;52.372;9.918;2023-04-01T06:06:13;98816.00;;;14.50
11792;BMP180;5953;52.372;9.918;2023-04-01T06:08:42;98821.00;;;14.40
11792;BMP180;5953;52.372;9.918;2023-04-01T06:11:23;98827.00;;;14.70
11792;BMP180;5953;52.372;9.918;2023-04-01T06:14:10;98818.00;;;14.60
11792;BMP180;5953;52.372;9.918;2023-04-01T06:16:53;98826.00;;;14.70
11792;BMP180;5953;52.372;9.918;2023-04-01T06:19:32;98827.00;;;14.50
11792;BMP180;5953;52.372;9.918;2023-04-01T06:22:17;98831.00;;;14.50
11792;BMP180;5953;52.372;9.918;2023-04-01T06:25:14;98829.00;;;14.50
11792;BMP180;5953;52.372;9.918;2023-04-01T06:27:56;98833.00;;;14.00
11792;BMP180;5953;52.372;9.918;2023-04-01T06:30:34;98825.00;;;14.40
11792;BMP180;5953;52.372;9.918;2023-04-01T06:33:12;98833.00;;;14.50
11792;BMP180;5953;52.372;9.918;2023-04-01T06:35:56;98844.00;;;14.70
11792;BMP180;5953;52.372;9.918;2023-04-01T06:38:39;98837.00;;;14.50
11792;BMP180;5953;52.372;9.918;2023-04-01T06:41:40;98840.00;;;14.80
11792;BMP180;5953;52.372;9.918;2023-04-01T06:44:16;98842.00;;;14.90
11792;BMP180;5953;52.372;9.918;2023-04-01T06:46:52;98846.00;;;14.60
11792;BMP180;5953;52.372;9.918;2023-04-01T06:49:33;98840.00;;;14.90
11792;BMP180;5953;52.372;9.918;2023-04-01T06:52:13;98846.00;;;14.70
11792;BMP180;5953;52.372;9.918;2023-04-01T06:54:48;98836.00;;;14.60
11792;BMP180;5953;52.372;9.918;2023-04-01T06:57:22;98843.00;;;14.80
11792;BMP180;5953;52.372;9.918;2023-04-01T06:59:51;98855.00;;;15.10
11792;BMP180;5953;52.372;9.918;2023-04-01T07:02:27;98857.00;;;15.00
11792;BMP180;5953;52.372;9.918;2023-04-01T07:04:57;98844.00;;;15.20
11792;BMP180;5953;52.372;9.918;2023-04-01T07:07:33;98854.00;;;15.20
11792;BMP180;5953;52.372;9.918;2023-04-01T07:10:04;98857.00;;;15.30
11792;BMP180;5953;52.372;9.918;2023-04-01T07:12:43;98856.00;;;15.10
11792;BMP180;5953;52.372;9.918;2023-04-01T07:15:16;98866.00;;;15.00
11792;BMP180;5953;52.372;9.918;2023-04-01T07:17:46;98861.00;;;15.30
11792;BMP180;5953;52.372;9.918;2023-04-01T07:20:18;98851.00;;;15.00
11792;BMP180;5953;52.372;9.918;2023-04-01T07:22:50;98860.00;;;15.20
11792;BMP180;5953;52.372;9.918;2023-04-01T07:25:21;98866.00;;;15.30
11792;BMP180;5953;52.372;9.918;2023-04-01T07:27:52;98872.00;;;15.40
11792;BMP180;5953;52.372;9.918;2023-04-01T07:30:23;98877.00;;;15.50
11792;BMP180;5953;52.372;9.918;2023-04-01T07:32:55;98888.00;;;15.50
11792;BMP180;5953;52.372;9.918;2023-04-01T07:35:30;98880.00;;;15.60
11792;BMP180;5953;52.372;9.918;2023-04-01T07:38:12;98864.00;;;15.50
11792;BMP180;5953;52.372;9.918;2023-04-01T07:40:48;98887.00;;;15.30
11792;BMP180;5953;52.372;9.918;2023-04-01T07:43:35;98892.00;;;15.40
11792;BMP180;5953;52.372;9.918;2023-04-01T07:46:12;98895.00;;;15.40
11792;BMP180;5953;52.372;9.918;2023-04-01T07:48:47;98897.00;;;15.30
11792;BMP180;5953;52.372;9.918;2023-04-01T07:51:22;98894.00;;;15.70
11792;BMP180;5953;52.372;9.918;2023-04-01T07:54:00;98901.00;;;15.80
11792;BMP180;5953;52.372;9.918;2023-04-01T07:56:36;98902.00;;;15.80
11792;BMP180;5953;52.372;9.918;2023-04-01T07:59:09;98907.00;;;15.60
11792;BMP180;5953;52.372;9.918;2023-04-01T08:01:44;98903.00;;;15.60
11792;BMP180;5953;52.372;9.918;2023-04-01T08:04:23;98906.00;;;15.40
11792;BMP180;5953;52.372;9.918;2023-04-01T08:06:58;98904.00;;;15.60
11792;BMP180;5953;52.372;9.918;2023-04-01T08:09:34;98900.00;;;15.60
11792;BMP180;5953;52.372;9.918;2023-04-01T08:12:17;98908.00;;;15.80
11792;BMP180;5953;52.372;9.918;2023-04-01T08:14:54;98898.00;;;15.90
11792;BMP180;5953;52.372;9.918;2023-04-01T08:17:29;98918.00;;;15.80
11792;BMP180;5953;52.372;9.918;2023-04-01T08:20:14;98918.00;;;15.90
11792;BMP180;5953;52.372;9.918;2023-04-01T08:22:48;98930.00;;;15.80
11792;BMP180;5953;52.372;9.918;2023-04-01T08:25:24;98928.00;;;15.80
11792;BMP180;5953;52.372;9.918;2023-04-01T08:27:57;98942.00;;;15.90
11792;BMP180;5953;52.372;9.918;2023-04-01T08:30:35;98927.00;;;15.90
11792;BMP180;5953;52.372;9.918;2023-04-01T08:33:12;98935.00;;;15.70
11792;BMP180;5953;52.372;9.918;2023-04-01T08:35:44;98929.00;;;15.80
11792;BMP180;5953;52.372;9.918;2023-04-01T08:38:18;98934.00;;;15.80
11792;BMP180;5953;52.372;9.918;2023-04-01T08:41:15;98941.00;;;16.10
11792;BMP180;5953;52.372;9.918;2023-04-01T08:44:10;98941.00;;;15.80
11792;BMP180;5953;52.372;9.918;2023-04-01T08:47:10;98945.00;;;16.30
11792;BMP180;5953;52.372;9.918;2023-04-01T08:49:56;98934.00;;;16.10
11792;BMP180;5953;52.372;9.918;2023-04-01T08:52:35;98939.00;;;16.20
11792;BMP180;5953;52.372;9.918;2023-04-01T08:55:27;98935.00;;;16.30
11792;BMP180;5953;52.372;9.918;2023-04-01T09:00:53;98939.00;;;16.60
11792;BMP180;5953;52.372;9.918;2023-04-01T09:06:33;98944.00;;;17.00
11792;BMP180;5953;52.372;9.918;2023-04-01T09:12:18;98944.00;;;17.10
11792;BMP180;5953;52.372;9.918;2023-04-01T09:15:19;98945.00;;;16.90
11792;BMP180;5953;52.372;9.918;2023-04-01T09:21:03;98945.00;;;16.50
11792;BMP180;5953;52.372;9.918;2023-04-01T09:23:47;98959.00;;;16.90
11792;BMP180;5953;52.372;9.918;2023-04-01T09:26:35;98964.00;;;16.50
11792;BMP180;5953;52.372;9.918;2023-04-01T09:29:20;98959.00;;;16.80
11792;BMP180;5953;52.372;9.918;2023-04-01T09:32:10;98961.00;;;17.00
11792;BMP180;5953;52.372;9.918;2023-04-01T09:34:52;98968.00;;;17.20
11792;BMP180;5953;52.372;9.918;2023-04-01T09:37:33;98970.00;;;17.30
11792;BMP180;5953;52.372;9.918;2023-04-01T09:40:16;98972.00;;;17.20
11792;BMP180;5953;52.372;9.918;2023-04-01T09:42:53;98970.00;;;17.50
11792;BMP180;5953;52.372;9.918;2023-04-01T09:45:37;98968.00;;;17.80
11792;BMP180;5953;52.372;9.918;2023-04-01T09:48:21;98975.00;;;17.60
11792;BMP180;5953;52.372;9.918;2023-04-01T09:51:01;98964.00;;;17.30
11792;BMP180;5953;52.372;9.918;2023-04-01T09:53:41;98979.00;;;17.00
11792;BMP180;5953;52.372;9.918;2023-04-01T09:56:46;98977.00;;;17.20
11792;BMP180;5953;52.372;9.918;2023-04-01T10:03:00;98992.00;;;17.30
11792;BMP180;5953;52.372;9.918;2023-04-01T10:08:46;98989.00;;;17.60
11792;BMP180;5953;52.372;9.918;2023-04-01T10:12:01;99001.00;;;17.70
11792;BMP180;5953;52.372;9.918;2023-04-01T10:20:55;98992.00;;;17.60
11792;BMP180;5953;52.372;9.918;2023-04-01T10:23:47;99000.00;;;17.40
11792;BMP180;5953;52.372;9.918;2023-04-01T10:26:45;99007.00;;;17.40
11792;BMP180;5953;52.372;9.918;2023-04-01T10:32:59;99015.00;;;17.40
11792;BMP180;5953;52.372;9.918;2023-04-01T10:35:54;99013.00;;;17.30
11792;BMP180;5953;52.372;9.918;2023-04-01T10:39:06;99013.00;;;17.10
11792;BMP180;5953;52.372;9.918;2023-04-01T10:51:04;99026.00;;;17.50
11792;BMP180;5953;52.372;9.918;2023-04-01T10:53:49;99026.00;;;17.40
11792;BMP180;5953;52.372;9.918;2023-04-01T10:56:34;99016.00;;;17.00
11792;BMP180;5953;52.372;9.918;2023-04-01T10:59:42;99017.00;;;16.90
11792;BMP180;5953;52.372;9.918;2023-04-01T11:05:57;99026.00;;;17.20
11792;BMP180;5953;52.372;9.918;2023-04-01T11:12:14;99030.00;;;17.30
11792;BMP180;5953;52.372;9.918;2023-04-01T11:15:22;99027.00;;;17.20
11792;BMP180;5953;52.372;9.918;2023-04-01T11:21:21;99043.00;;;17.20
11792;BMP180;5953;52.372;9.918;2023-04-01T11:27:06;99048.00;;;17.00
11792;BMP180;5953;52.372;9.918;2023-04-01T11:30:02;99056.00;;;16.70
11792;BMP180;5953;52.372;9.918;2023-04-01T11:32:42;99065.00;;;16.90
11792;BMP180;5953;52.372;9.918;2023-04-01T11:35:32;99066.00;;;16.40
11792;BMP180;5953;52.372;9.918;2023-04-01T11:38:16;99068.00;;;16.50
11792;BMP180;5953;52.372;9.918;2023-04-01T11:40:51;99067.00;;;16.50
11792;BMP180;5953;52.372;9.918;2023-04-01T11:43:27;99077.00;;;16.70
11792;BMP180;5953;52.372;9.918;2023-04-01T11:46:05;99068.00;;;16.90
11792;BMP180;5953;52.372;9.918;2023-04-01T11:48:57;99065.00;;;17.10
11792;BMP180;5953;52.372;9.918;2023-04-01T11:51:46;99083.00;;;16.90
11792;BMP180;5953;52.372;9.918;2023-04-01T11:54:31;99081.00;;;17.10
11792;BMP180;5953;52.372;9.918;2023-04-01T11:57:13;99084.00;;;17.10
11792;BMP180;5953;52.372;9.918;2023-04-01T12:00:10;99086.00;;;17.00
11792;BMP180;5953;52.372;9.918;2023-04-01T12:02:51;99087.00;;;17.00
11792;BMP180;5953;52.372;9.918;2023-04-01T12:05:38;99080.00;;;17.10
11792;BMP180;5953;52.372;9.918;2023-04-01T12:08:15;99096.00;;;17.00
11792;BMP180;5953;52.372;9.918;2023-04-01T12:10:53;99094.00;;;17.00
11792;BMP180;5953;52.372;9.918;2023-04-01T12:13:31;99093.00;;;16.80
11792;BMP180;5953;52.372;9.918;2023-04-01T12:16:23;99106.00;;;17.00
11792;BMP180;5953;52.372;9.918;2023-04-01T12:18:57;99099.00;;;17.30
11792;BMP180;5953;52.372;9.918;2023-04-01T12:21:33;99107.00;;;17.20
11792;BMP180;5953;52.372;9.918;2023-04-01T12:24:27;99110.00;;;17.40
11792;BMP180;5953;52.372;9.918;2023-04-01T12:27:06;99107.00;;;17.30
11792;BMP180;5953;52.372;9.918;2023-04-01T12:32:49;99109.00;;;17.30
11792;BMP180;5953;52.372;9.918;2023-04-01T12:35:24;99114.00;;;17.20
11792;BMP180;5953;52.372;9.918;2023-04-01T12:38:09;99116.00;;;17.30
11792;BMP180;5953;52.372;9.918;2023-04-01T12:40:50;99119.00;;;17.30
11792;BMP180;5953;52.372;9.918;2023-04-01T12:43:45;99123.00;;;17.40
11792;BMP180;5953;52.372;9.918;2023-04-01T12:46:24;99125.00;;;17.50
11792;BMP180;5953;52.372;9.918;2023-04-01T12:49:17;99133.00;;;17.30
11792;BMP180;5953;52.372;9.918;2023-04-01T12:52:03;99138.00;;;17.50
11792;BMP180;5953;52.372;9.918;2023-04-01T12:55:08;99142.00;;;17.30
11792;BMP180;5953;52.372;9.918;2023-04-01T12:58:20;99145.00;;;17.30
11792;BMP180;5953;52.372;9.918;2023-04-01T13:01:08;99141.00;;;17.60
11792;BMP180;5953;52.372;9.918;2023-04-01T13:04:04;99142.00;;;17.50
11792;BMP180;5953;52.372;9.918;2023-04-01T13:06:42;99153.00;;;17.60
11792;BMP180;5953;52.372;9.918;2023-04-01T13:09:26;99144.00;;;17.60
11792;BMP180;5953;52.372;9.918;2023-04-01T13:12:17;99138.00;;;17.60
11792;BMP180;5953;52.372;9.918;2023-04-01T13:15:03;99159.00;;;17.50
11792;BMP180;5953;52.372;9.918;2023-04-01T13:17:36;99164.00;;;17.40
11792;BMP180;5953;52.372;9.918;2023-04-01T13:20:15;99154.00;;;17.30
11792;BMP180;5953;52.372;9.918;2023-04-01T13:22:57;99172.00;;;17.40
11792;BMP180;5953;52.372;9.918;2023-04-01T13:25:34;99177.00;;;17.30
11792;BMP180;5953;52.372;9.918;2023-04-01T13:28:11;99166.00;;;17.40
11792;BMP180;5953;52.372;9.918;2023-04-01T13:30:44;99161.00;;;17.30
11792;BMP180;5953;52.372;9.918;2023-04-01T13:33:17;99179.00;;;17.10
11792;BMP180;5953;52.372;9.918;2023-04-01T13:35:58;99178.00;;;17.30
11792;BMP180;5953;52.372;9.918;2023-04-01T13:38:48;99176.00;;;17.40
11792;BMP180;5953;52.372;9.918;2023-04-01T13:41:34;99190.00;;;17.30
11792;BMP180;5953;52.372;9.918;2023-04-01T13:44:10;99195.00;;;17.20
11792;BMP180;5953;52.372;9.918;2023-04-01T13:46:52;99193.00;;;16.80
11792;BMP180;5953;52.372;9.918;2023-04-01T13:49:38;99205.00;;;16.30
11792;BMP180;5953;52.372;9.918;2023-04-01T13:52:39;99199.00;;;15.90
11792;BMP180;5953;52.372;9.918;2023-04-01T13:55:35;99216.00;;;15.70
11792;BMP180;5953;52.372;9.918;2023-04-01T13:58:24;99218.00;;;15.60
11792;BMP180;5953;52.372;9.918;2023-04-01T14:01:04;99219.00;;;15.40
11792;BMP180;5953;52.372;9.918;2023-04-01T14:03:45;99221.00;;;15.50
11792;BMP180;5953;52.372;9.918;2023-04-01T14:06:29;99225.00;;;15.40
11792;BMP180;5953;52.372;9.918;2023-04-01T14:09:24;99232.00;;;15.30
11792;BMP180;5953;52.372;9.918;2023-04-01T14:11:59;99240.00;;;15.20
11792;BMP180;5953;52.372;9.918;2023-04-01T14:14:36;99238.00;;;15.00
11792;BMP180;5953;52.372;9.918;2023-04-01T14:17:39;99243.00;;;14.90
11792;BMP180;5953;52.372;9.918;2023-04-01T14:20:26;99255.00;;;14.70
11792;BMP180;5953;52.372;9.918;2023-04-01T14:23:17;99264.00;;;14.60
11792;BMP180;5953;52.372;9.918;2023-04-01T14:26:01;99272.00;;;14.40
11792;BMP180;5953;52.372;9.918;2023-04-01T14:28:35;99270.00;;;14.50
11792;BMP180;5953;52.372;9.918;2023-04-01T14:31:38;99275.00;;;14.60
11792;BMP180;5953;52.372;9.918;2023-04-01T14:34:21;99284.00;;;14.70
11792;BMP180;5953;52.372;9.918;2023-04-01T14:37:00;99283.00;;;14.60
11792;BMP180;5953;52.372;9.918;2023-04-01T14:39:47;99286.00;;;14.40
11792;BMP180;5953;52.372;9.918;2023-04-01T14:42:37;99309.00;;;14.30
11792;BMP180;5953;52.372;9.918;2023-04-01T14:45:29;99290.00;;;14.50
11792;BMP180;5953;52.372;9.918;2023-04-01T14:48:07;99307.00;;;14.40
11792;BMP180;5953;52.372;9.918;2023-04-01T14:50:44;99296.00;;;14.30
11792;BMP180;5953;52.372;9.918;2023-04-01T14:53:26;99316.00;;;14.40
11792;BMP180;5953;52.372;9.918;2023-04-01T14:55:56;99320.00;;;14.10
11792;BMP180;5953;52.372;9.918;2023-04-01T14:58:44;99324.00;;;14.10
11792;BMP180;5953;52.372;9.918;2023-04-01T15:01:35;99311.00;;;14.10
11792;BMP180;5953;52.372;9.918;2023-04-01T15:04:24;99338.00;;;13.90
11792;BMP180;5953;52.372;9.918;2023-04-01T15:07:02;99335.00;;;13.70
11792;BMP180;5953;52.372;9.918;2023-04-01T15:09:38;99330.00;;;13.50
11792;BMP180;5953;52.372;9.918;2023-04-01T15:12:23;99330.00;;;13.60
11792;BMP180;5953;52.372;9.918;2023-04-01T15:17:55;99350.00;;;13.30
11792;BMP180;5953;52.372;9.918;2023-04-01T15:20:39;99355.00;;;13.30
11792;BMP180;5953;52.372;9.918;2023-04-01T15:23:21;99358.00;;;13.30
11792;BMP180;5953;52.372;9.918;2023-04-01T15:26:16;99372.00;;;13.30
11792;BMP180;5953;52.372;9.918;2023-04-01T15:28:56;99358.00;;;13.30
11792;BMP180;5953;52.372;9.918;2023-04-01T15:31:33;99389.00;;;13.50
11792;BMP180;5953;52.372;9.918;2023-04-01T15:34:19;99396.00;;;13.30
11792;BMP180;5953;52.372;9.918;2023-04-01T15:36:53;99386.00;;;13.10
11792;BMP180;5953;52.372;9.918;2023-04-01T15:39:30;99397.00;;;13.30
11792;BMP180;5953;52.372;9.918;2023-04-01T15:42:18;99389.00;;;13.20
11792;BMP180;5953;52.372;9.918;2023-04-01T15:45:00;99399.00;;;13.10
11792;BMP180;5953;52.372;9.918;2023-04-01T15:47:40;99396.00;;;13.30
11792;BMP180;5953;52.372;9.918;2023-04-01T15:50:34;99408.00;;;13.10
11792;BMP180;5953;52.372;9.918;2023-04-01T15:53:18;99414.00;;;13.10
11792;BMP180;5953;52.372;9.918;2023-04-01T15:55:57;99411.00;;;13.10
11792;BMP180;5953;52.372;9.918;2023-04-01T15:58:42;99425.00;;;12.90
11792;BMP180;5953;52.372;9.918;2023-04-01T16:01:24;99425.00;;;12.90
11792;BMP180;5953;52.372;9.918;2023-04-01T16:03:58;99440.00;;;12.90
11792;BMP180;5953;52.372;9.918;2023-04-01T16:06:51;99449.00;;;12.70
11792;BMP180;5953;52.372;9.918;2023-04-01T16:09:39;99452.00;;;12.90
11792;BMP180;5953;52.372;9.918;2023-04-01T16:12:16;99452.00;;;12.80
11792;BMP180;5953;52.372;9.918;2023-04-01T16:14:55;99450.00;;;12.60
11792;BMP180;5953;52.372;9.918;2023-04-01T16:17:35;99459.00;;;12.60